sensor_id;sensor_type;location;lat;lon;timestamp;pressure;altitude;pressure_sealevel;temperature;humidity
68988;BME280;56038;46.080;11.116;2023-03-14T00:01:45;98578.84;;;11.22;62.45
68988;BME280;56038;46.080;11.116;2023-03-14T00:06:52;98570.50;;;11.31;61.89
68988;BME280;56038;46.080;11.116;2023-03-14T00:11:57;98574.47;;;11.22;63.42
68988;BME280;56038;46.080;11.116;2023-03-14T00:17:00;98577.56;;;11.29;63.06
68988;BME280;56038;46.080;11.116;2023-03-14T00:22:01;98562.47;;;11.34;62.84
68988;BME280;56038;46.080;11.116;2023-03-14T00:27:03;98564.69;;;11.10;66.84
68988;BME280;56038;46.080;11.116;2023-03-14T00:32:06;98556.94;;;10.93;66.91
68988;BME280;56038;46.080;11.116;2023-03-14T00:37:08;98550.56;;;10.65;70.17
68988;BME280;56038;46.080;11.116;2023-03-14T00:42:10;98554.25;;;10.45;72.50
68988;BME280;56038;46.080;11.116;2023-03-14T00:47:13;98556.66;;;10.33;73.56
68988;BME280;56038;46.080;11.116;2023-03-14T00:52:14;98539.16;;;10.35;72.88
68988;BME280;56038;46.080;11.116;2023-03-14T00:57:16;98525.50;;;10.12;76.14
68988;BME280;56038;46.080;11.116;2023-03-14T01:02:19;98500.84;;;10.18;75.28
68988;BME280;56038;46.080;11.116;2023-03-14T01:07:21;98503.31;;;10.04;78.21
68988;BME280;56038;46.080;11.116;2023-03-14T01:12:23;98469.31;;;10.05;76.68
68988;BME280;56038;46.080;11.116;2023-03-14T01:17:26;98455.06;;;10.12;76.98
68988;BME280;56038;46.080;11.116;2023-03-14T01:22:28;98433.38;;;9.95;81.39
68988;BME280;56038;46.080;11.116;2023-03-14T01:27:30;98416.47;;;10.02;78.63
68988;BME280;56038;46.080;11.116;2023-03-14T01:32:33;98391.88;;;9.90;80.00
68988;BME280;56038;46.080;11.116;2023-03-14T01:37:35;98362.34;;;9.89;80.60
68988;BME280;56038;46.080;11.116;2023-03-14T01:42:37;98337.25;;;9.87;81.18
68988;BME280;56038;46.080;11.116;2023-03-14T01:47:40;98331.47;;;9.82;81.08
68988;BME280;56038;46.080;11.116;2023-03-14T01:52:44;98334.66;;;9.87;81.12
68988;BME280;56038;46.080;11.116;2023-03-14T01:57:49;98308.00;;;9.98;79.96
68988;BME280;56038;46.080;11.116;2023-03-14T02:02:56;98309.50;;;10.02;80.62
68988;BME280;56038;46.080;11.116;2023-03-14T02:08:01;98283.84;;;9.78;82.44
68988;BME280;56038;46.080;11.116;2023-03-14T02:13:04;98278.78;;;9.75;82.18
68988;BME280;56038;46.080;11.116;2023-03-14T02:18:08;98277.28;;;9.87;81.48
68988;BME280;56038;46.080;11.116;2023-03-14T02:23:11;98259.47;;;9.79;83.16
68988;BME280;56038;46.080;11.116;2023-03-14T02:28:16;98229.56;;;9.85;80.85
68988;BME280;56038;46.080;11.116;2023-03-14T02:33:19;98226.97;;;9.85;81.18
68988;BME280;56038;46.080;11.116;2023-03-14T02:38:26;98231.00;;;9.75;82.34
68988;BME280;56038;46.080;11.116;2023-03-14T02:43:31;98219.63;;;9.76;82.09
68988;BME280;56038;46.080;11.116;2023-03-14T02:48:35;98205.75;;;9.75;81.73
68988;BME280;56038;46.080;11.116;2023-03-14T02:53:39;98194.16;;;9.81;82.19
68988;BME280;56038;46.080;11.116;2023-03-14T02:58:43;98197.28;;;9.72;83.15
68988;BME280;56038;46.080;11.116;2023-03-14T03:03:44;98198.03;;;9.74;82.52
68988;BME280;56038;46.080;11.116;2023-03-14T03:08:46;98197.84;;;9.77;81.99
68988;BME280;56038;46.080;11.116;2023-03-14T03:13:49;98191.66;;;9.79;82.01
68988;BME280;56038;46.080;11.116;2023-03-14T03:18:51;98163.72;;;9.81;82.13
68988;BME280;56038;46.080;11.116;2023-03-14T03:23:53;98168.47;;;9.89;82.26
68988;BME280;56038;46.080;11.116;2023-03-14T03:28:56;98156.69;;;9.98;81.43
68988;BME280;56038;46.080;11.116;2023-03-14T03:33:58;98166.78;;;10.04;80.99
68988;BME280;56038;46.080;11.116;2023-03-14T03:38:59;98148.47;;;9.89;82.38
68988;BME280;56038;46.080;11.116;2023-03-14T03:44:03;98175.56;;;9.87;81.10
68988;BME280;56038;46.080;11.116;2023-03-14T03:49:06;98136.94;;;9.78;85.70
68988;BME280;56038;46.080;11.116;2023-03-14T03:54:07;98168.56;;;9.87;82.47
68988;BME280;56038;46.080;11.116;2023-03-14T03:59:10;98158.06;;;9.89;83.25
68988;BME280;56038;46.080;11.116;2023-03-14T04:04:12;98136.63;;;9.84;83.64
68988;BME280;56038;46.080;11.116;2023-03-14T04:09:14;98126.41;;;9.95;82.73
68988;BME280;56038;46.080;11.116;2023-03-14T04:14:17;98107.97;;;9.98;81.84
68988;BME280;56038;46.080;11.116;2023-03-14T04:19:20;98096.16;;;10.07;81.50
68988;BME280;56038;46.080;11.116;2023-03-14T04:24:22;98096.16;;;10.07;80.94
68988;BME280;56038;46.080;11.116;2023-03-14T04:29:25;98086.69;;;9.90;87.12
68988;BME280;56038;46.080;11.116;2023-03-14T04:34:26;98044.50;;;9.83;87.21
68988;BME280;56038;46.080;11.116;2023-03-14T04:39:28;98044.97;;;9.90;86.24
68988;BME280;56038;46.080;11.116;2023-03-14T04:44:31;98024.84;;;9.92;85.72
68988;BME280;56038;46.080;11.116;2023-03-14T04:49:33;98033.44;;;9.94;86.07
68988;BME280;56038;46.080;11.116;2023-03-14T04:54:35;98016.22;;;10.06;84.28
68988;BME280;56038;46.080;11.116;2023-03-14T04:59:38;98005.53;;;10.10;84.47
68988;BME280;56038;46.080;11.116;2023-03-14T05:04:40;98020.69;;;10.18;84.58
68988;BME280;56038;46.080;11.116;2023-03-14T05:09:41;98021.72;;;10.15;85.26
68988;BME280;56038;46.080;11.116;2023-03-14T05:14:44;98000.75;;;10.03;86.54
68988;BME280;56038;46.080;11.116;2023-03-14T05:19:46;97997.84;;;10.07;85.76
68988;BME280;56038;46.080;11.116;2023-03-14T05:24:48;97983.13;;;10.06;86.15
68988;BME280;56038;46.080;11.116;2023-03-14T05:29:51;97959.47;;;9.95;87.10
68988;BME280;56038;46.080;11.116;2023-03-14T05:34:53;97923.53;;;10.00;86.82
68988;BME280;56038;46.080;11.116;2023-03-14T05:39:58;97901.31;;;10.07;87.29
68988;BME280;56038;46.080;11.116;2023-03-14T05:45:01;97884.84;;;10.07;86.61
68988;BME280;56038;46.080;11.116;2023-03-14T05:50:03;97844.97;;;10.05;86.69
68988;BME280;56038;46.080;11.116;2023-03-14T05:55:06;97906.53;;;10.07;86.67
68988;BME280;56038;46.080;11.116;2023-03-14T06:00:10;97954.34;;;10.08;86.00
68988;BME280;56038;46.080;11.116;2023-03-14T06:05:12;97941.97;;;10.11;85.29
68988;BME280;56038;46.080;11.116;2023-03-14T06:10:14;97957.44;;;10.14;85.94
68988;BME280;56038;46.080;11.116;2023-03-14T06:15:17;97958.47;;;10.12;86.66
68988;BME280;56038;46.080;11.116;2023-03-14T06:20:19;97964.13;;;10.04;88.67
68988;BME280;56038;46.080;11.116;2023-03-14T06:25:21;97967.47;;;10.06;88.39
68988;BME280;56038;46.080;11.116;2023-03-14T06:30:24;97965.63;;;10.08;88.86
68988;BME280;56038;46.080;11.116;2023-03-14T06:35:26;97965.25;;;10.14;88.35
68988;BME280;56038;46.080;11.116;2023-03-14T06:40:27;97960.41;;;10.08;91.31
68988;BME280;56038;46.080;11.116;2023-03-14T06:45:30;97951.66;;;9.95;92.49
68988;BME280;56038;46.080;11.116;2023-03-14T06:50:32;97955.47;;;10.04;92.40
68988;BME280;56038;46.080;11.116;2023-03-14T06:55:34;97949.91;;;10.10;92.54
68988;BME280;56038;46.080;11.116;2023-03-14T07:00:37;97953.88;;;10.15;90.33
68988;BME280;56038;46.080;11.116;2023-03-14T07:05:39;97950.34;;;10.02;91.77
68988;BME280;56038;46.080;11.116;2023-03-14T07:10:41;97961.81;;;10.00;92.11
68988;BME280;56038;46.080;11.116;2023-03-14T07:15:45;97958.47;;;10.12;91.32
68988;BME280;56038;46.080;11.116;2023-03-14T07:20:46;97953.34;;;10.25;90.36
68988;BME280;56038;46.080;11.116;2023-03-14T07:25:48;97937.97;;;10.34;89.80
68988;BME280;56038;46.080;11.116;2023-03-14T07:30:52;97937.09;;;10.48;89.58
68988;BME280;56038;46.080;11.116;2023-03-14T07:35:54;97956.66;;;10.55;89.03
68988;BME280;56038;46.080;11.116;2023-03-14T07:40:59;97956.28;;;10.61;88.47
68988;BME280;56038;46.080;11.116;2023-03-14T07:46:03;97955.16;;;10.65;88.59
68988;BME280;56038;46.080;11.116;2023-03-14T07:51:05;97964.47;;;10.69;88.62
68988;BME280;56038;46.080;11.116;2023-03-14T07:56:08;97967.25;;;10.80;88.02
68988;BME280;56038;46.080;11.116;2023-03-14T08:01:11;97971.81;;;10.91;87.77
68988;BME280;56038;46.080;11.116;2023-03-14T08:06:13;97966.47;;;10.93;86.72
68988;BME280;56038;46.080;11.116;2023-03-14T08:11:14;97957.59;;;10.95;86.85
68988;BME280;56038;46.080;11.116;2023-03-14T08:16:18;97959.44;;;11.07;86.02
68988;BME280;56038;46.080;11.116;2023-03-14T08:21:20;97951.91;;;11.16;86.75
68988;BME280;56038;46.080;11.116;2023-03-14T08:26:22;97947.91;;;11.37;85.09
68988;BME280;56038;46.080;11.116;2023-03-14T08:31:25;97949.72;;;11.62;84.46
68988;BME280;56038;46.080;11.116;2023-03-14T08:36:27;97955.41;;;11.81;83.64
68988;BME280;56038;46.080;11.116;2023-03-14T08:41:29;97959.97;;;11.78;81.96
68988;BME280;56038;46.080;11.116;2023-03-14T08:46:32;97945.34;;;11.75;80.44
68988;BME280;56038;46.080;11.116;2023-03-14T08:51:35;97930.09;;;11.82;80.70
68988;BME280;56038;46.080;11.116;2023-03-14T08:56:37;97936.81;;;11.86;79.47
68988;BME280;56038;46.080;11.116;2023-03-14T09:01:40;97930.94;;;11.95;78.47
68988;BME280;56038;46.080;11.116;2023-03-14T09:06:42;97924.97;;;12.06;78.62
68988;BME280;56038;46.080;11.116;2023-03-14T09:11:44;97914.06;;;12.12;77.96
68988;BME280;56038;46.080;11.116;2023-03-14T09:16:47;97909.31;;;12.29;77.78
68988;BME280;56038;46.080;11.116;2023-03-14T09:21:49;97917.13;;;12.55;76.57
68988;BME280;56038;46.080;11.116;2023-03-14T09:26:51;97920.88;;;12.64;75.63
68988;BME280;56038;46.080;11.116;2023-03-14T09:31:54;97920.31;;;12.71;75.27
68988;BME280;56038;46.080;11.116;2023-03-14T09:36:57;97902.66;;;12.86;74.61
68988;BME280;56038;46.080;11.116;2023-03-14T09:42:03;97903.19;;;13.02;73.68
68988;BME280;56038;46.080;11.116;2023-03-14T09:47:11;97886.00;;;13.57;71.79
68988;BME280;56038;46.080;11.116;2023-03-14T09:52:15;97879.81;;;13.69;71.20
68988;BME280;56038;46.080;11.116;2023-03-14T09:57:20;97873.16;;;13.76;70.96
68988;BME280;56038;46.080;11.116;2023-03-14T10:02:27;97878.88;;;13.93;70.72
68988;BME280;56038;46.080;11.116;2023-03-14T10:07:31;97881.84;;;13.88;70.89
68988;BME280;56038;46.080;11.116;2023-03-14T10:12:34;97869.66;;;13.87;70.92
68988;BME280;56038;46.080;11.116;2023-03-14T10:17:43;97867.28;;;13.84;70.88
68988;BME280;56038;46.080;11.116;2023-03-14T10:22:46;97866.09;;;13.88;70.19
68988;BME280;56038;46.080;11.116;2023-03-14T10:27:51;97861.19;;;14.39;67.14
68988;BME280;56038;46.080;11.116;2023-03-14T10:32:54;97860.09;;;14.42;67.84
68988;BME280;56038;46.080;11.116;2023-03-14T10:37:58;97865.34;;;14.42;67.76
68988;BME280;56038;46.080;11.116;2023-03-14T10:43:04;97860.09;;;14.31;66.71
68988;BME280;56038;46.080;11.116;2023-03-14T10:48:18;97838.44;;;14.06;67.17
68988;BME280;56038;46.080;11.116;2023-03-14T10:53:21;97836.88;;;13.93;67.90
68988;BME280;56038;46.080;11.116;2023-03-14T10:58:26;97838.16;;;14.21;67.71
68988;BME280;56038;46.080;11.116;2023-03-14T11:03:31;97836.25;;;14.23;67.26
68988;BME280;56038;46.080;11.116;2023-03-14T11:08:39;97830.06;;;14.13;66.90
68988;BME280;56038;46.080;11.116;2023-03-14T11:13:48;97827.72;;;14.42;66.87
68988;BME280;56038;46.080;11.116;2023-03-14T11:19:07;97824.31;;;14.73;65.40
68988;BME280;56038;46.080;11.116;2023-03-14T11:24:31;97814.09;;;14.91;64.40
68988;BME280;56038;46.080;11.116;2023-03-14T11:29:40;97807.09;;;16.63;60.31
68988;BME280;56038;46.080;11.116;2023-03-14T11:34:49;97788.94;;;17.75;57.05
68988;BME280;56038;46.080;11.116;2023-03-14T11:39:57;97792.22;;;17.86;57.14
68988;BME280;56038;46.080;11.116;2023-03-14T11:45:02;97781.75;;;17.48;58.19
68988;BME280;56038;46.080;11.116;2023-03-14T11:50:14;97789.66;;;17.94;54.34
68988;BME280;56038;46.080;11.116;2023-03-14T11:55:19;97797.16;;;18.44;54.85
68988;BME280;56038;46.080;11.116;2023-03-14T12:00:24;97784.78;;;17.72;56.61
68988;BME280;56038;46.080;11.116;2023-03-14T12:05:39;97771.03;;;16.64;55.70
68988;BME280;56038;46.080;11.116;2023-03-14T12:10:48;97762.47;;;16.02;59.23
68988;BME280;56038;46.080;11.116;2023-03-14T12:15:55;97760.84;;;15.71;59.41
68988;BME280;56038;46.080;11.116;2023-03-14T12:21:00;97755.41;;;15.32;60.10
68988;BME280;56038;46.080;11.116;2023-03-14T12:26:08;97750.22;;;15.21;60.00
68988;BME280;56038;46.080;11.116;2023-03-14T12:31:35;97746.22;;;15.26;59.59
68988;BME280;56038;46.080;11.116;2023-03-14T12:36:57;97737.88;;;15.21;58.77
68988;BME280;56038;46.080;11.116;2023-03-14T12:42:04;97715.13;;;15.11;58.79
68988;BME280;56038;46.080;11.116;2023-03-14T12:52:54;97727.31;;;15.73;58.61
68988;BME280;56038;46.080;11.116;2023-03-14T12:58:05;97716.88;;;16.21;57.73
68988;BME280;56038;46.080;11.116;2023-03-14T13:03:18;97724.03;;;17.72;53.88
68988;BME280;56038;46.080;11.116;2023-03-14T13:08:36;97715.22;;;17.81;53.18
68988;BME280;56038;46.080;11.116;2023-03-14T13:13:41;97712.50;;;17.73;50.93
68988;BME280;56038;46.080;11.116;2023-03-14T13:18:44;97706.69;;;17.23;54.69
68988;BME280;56038;46.080;11.116;2023-03-14T13:23:59;97695.69;;;17.27;52.53
68988;BME280;56038;46.080;11.116;2023-03-14T13:29:09;97691.88;;;18.22;49.92
68988;BME280;56038;46.080;11.116;2023-03-14T13:34:11;97686.66;;;18.48;48.44
68988;BME280;56038;46.080;11.116;2023-03-14T13:39:18;97672.34;;;18.59;48.13
68988;BME280;56038;46.080;11.116;2023-03-14T13:44:25;97676.69;;;18.06;49.50
68988;BME280;56038;46.080;11.116;2023-03-14T13:49:28;97673.34;;;17.59;49.96
68988;BME280;56038;46.080;11.116;2023-03-14T13:54:34;97671.09;;;17.36;51.00
68988;BME280;56038;46.080;11.116;2023-03-14T13:59:35;97665.69;;;17.28;51.56
68988;BME280;56038;46.080;11.116;2023-03-14T14:04:37;97664.47;;;17.23;51.70
68988;BME280;56038;46.080;11.116;2023-03-14T14:09:42;97669.00;;;17.67;50.98
68988;BME280;56038;46.080;11.116;2023-03-14T14:14:49;97674.91;;;17.79;50.64
68988;BME280;56038;46.080;11.116;2023-03-14T14:19:52;97672.44;;;17.95;50.51
68988;BME280;56038;46.080;11.116;2023-03-14T14:24:58;97682.13;;;17.50;51.40
68988;BME280;56038;46.080;11.116;2023-03-14T14:30:02;97673.19;;;16.86;51.97
68988;BME280;56038;46.080;11.116;2023-03-14T14:35:05;97657.69;;;16.44;53.89
68988;BME280;56038;46.080;11.116;2023-03-14T14:40:16;97664.22;;;16.31;54.29
68988;BME280;56038;46.080;11.116;2023-03-14T14:45:22;97661.16;;;16.26;55.19
68988;BME280;56038;46.080;11.116;2023-03-14T14:50:30;97653.94;;;16.08;56.07
68988;BME280;56038;46.080;11.116;2023-03-14T14:55:38;97654.50;;;16.02;56.35
68988;BME280;56038;46.080;11.116;2023-03-14T15:00:41;97651.28;;;15.39;57.88
68988;BME280;56038;46.080;11.116;2023-03-14T15:05:43;97657.38;;;15.00;59.19
68988;BME280;56038;46.080;11.116;2023-03-14T15:10:47;97651.72;;;15.04;59.16
68988;BME280;56038;46.080;11.116;2023-03-14T15:15:49;97651.56;;;14.75;60.29
68988;BME280;56038;46.080;11.116;2023-03-14T15:20:56;97645.50;;;14.43;61.80
68988;BME280;56038;46.080;11.116;2023-03-14T15:25:59;97653.50;;;14.20;63.03
68988;BME280;56038;46.080;11.116;2023-03-14T15:31:01;97656.88;;;14.11;62.88
68988;BME280;56038;46.080;11.116;2023-03-14T15:36:13;97664.34;;;13.95;63.64
68988;BME280;56038;46.080;11.116;2023-03-14T15:41:19;97663.34;;;13.64;65.07
68988;BME280;56038;46.080;11.116;2023-03-14T15:46:22;97663.09;;;13.56;65.65
68988;BME280;56038;46.080;11.116;2023-03-14T15:51:24;97663.84;;;13.35;66.12
68988;BME280;56038;46.080;11.116;2023-03-14T15:56:27;97667.09;;;13.28;66.54
68988;BME280;56038;46.080;11.116;2023-03-14T16:01:31;97662.91;;;13.14;67.11
68988;BME280;56038;46.080;11.116;2023-03-14T16:06:33;97664.34;;;13.18;66.21
68988;BME280;56038;46.080;11.116;2023-03-14T16:11:37;97662.31;;;13.22;66.29
68988;BME280;56038;46.080;11.116;2023-03-14T16:16:39;97676.38;;;13.21;67.19
68988;BME280;56038;46.080;11.116;2023-03-14T16:21:40;97689.50;;;13.21;66.16
68988;BME280;56038;46.080;11.116;2023-03-14T16:26:44;97694.47;;;13.12;66.96
68988;BME280;56038;46.080;11.116;2023-03-14T16:31:46;97687.06;;;13.06;66.63
68988;BME280;56038;46.080;11.116;2023-03-14T16:36:48;97701.38;;;13.02;66.51
68988;BME280;56038;46.080;11.116;2023-03-14T16:41:52;97706.38;;;12.94;67.15
68988;BME280;56038;46.080;11.116;2023-03-14T16:46:54;97706.47;;;12.81;67.73
68988;BME280;56038;46.080;11.116;2023-03-14T16:51:56;97719.06;;;12.76;68.11
68988;BME280;56038;46.080;11.116;2023-03-14T16:56:59;97730.13;;;12.69;68.25
68988;BME280;56038;46.080;11.116;2023-03-14T17:02:01;97728.69;;;12.76;67.67
68988;BME280;56038;46.080;11.116;2023-03-14T17:07:03;97729.78;;;12.73;68.01
68988;BME280;56038;46.080;11.116;2023-03-14T17:12:09;97738.59;;;12.72;67.96
68988;BME280;56038;46.080;11.116;2023-03-14T17:17:11;97737.28;;;12.78;67.64
68988;BME280;56038;46.080;11.116;2023-03-14T17:22:13;97748.94;;;12.74;68.36
68988;BME280;56038;46.080;11.116;2023-03-14T17:27:17;97745.19;;;12.54;70.15
68988;BME280;56038;46.080;11.116;2023-03-14T17:32:20;97778.53;;;12.52;70.40
68988;BME280;56038;46.080;11.116;2023-03-14T17:37:22;97776.25;;;12.47;70.30
68988;BME280;56038;46.080;11.116;2023-03-14T17:42:25;97789.28;;;12.36;70.22
68988;BME280;56038;46.080;11.116;2023-03-14T17:47:27;97804.38;;;12.33;70.61
68988;BME280;56038;46.080;11.116;2023-03-14T17:52:29;97817.13;;;12.37;70.62
68988;BME280;56038;46.080;11.116;2023-03-14T17:57:32;97835.97;;;12.42;70.06
68988;BME280;56038;46.080;11.116;2023-03-14T18:02:37;97843.09;;;12.40;70.98
68988;BME280;56038;46.080;11.116;2023-03-14T18:07:39;97863.44;;;12.37;71.93
68988;BME280;56038;46.080;11.116;2023-03-14T18:12:43;97879.63;;;12.18;73.56
68988;BME280;56038;46.080;11.116;2023-03-14T18:17:44;97883.69;;;12.09;74.07
68988;BME280;56038;46.080;11.116;2023-03-14T18:22:46;97901.53;;;12.04;74.27
68988;BME280;56038;46.080;11.116;2023-03-14T18:27:49;97903.06;;;12.07;73.00
68988;BME280;56038;46.080;11.116;2023-03-14T18:32:51;97917.63;;;12.11;73.76
68988;BME280;56038;46.080;11.116;2023-03-14T18:37:53;97932.59;;;12.09;74.40
68988;BME280;56038;46.080;11.116;2023-03-14T18:42:56;97938.16;;;11.91;75.75
68988;BME280;56038;46.080;11.116;2023-03-14T18:47:58;97936.91;;;11.84;76.20
68988;BME280;56038;46.080;11.116;2023-03-14T18:52:59;97929.84;;;11.72;76.90
68988;BME280;56038;46.080;11.116;2023-03-14T18:58:03;97936.13;;;11.69;76.67
68988;BME280;56038;46.080;11.116;2023-03-14T19:03:05;97956.03;;;11.72;76.91
68988;BME280;56038;46.080;11.116;2023-03-14T19:08:07;97969.81;;;11.74;77.25
68988;BME280;56038;46.080;11.116;2023-03-14T19:13:10;97964.81;;;11.71;78.18
68988;BME280;56038;46.080;11.116;2023-03-14T19:18:12;97964.81;;;11.71;78.55
68988;BME280;56038;46.080;11.116;2023-03-14T19:23:14;97976.00;;;11.73;78.01
68988;BME280;56038;46.080;11.116;2023-03-14T19:28:17;97977.38;;;11.79;77.51
68988;BME280;56038;46.080;11.116;2023-03-14T19:33:19;97987.16;;;11.62;81.17
68988;BME280;56038;46.080;11.116;2023-03-14T19:38:21;97991.97;;;11.56;81.52
68988;BME280;56038;46.080;11.116;2023-03-14T19:43:24;98003.91;;;11.60;80.65
68988;BME280;56038;46.080;11.116;2023-03-14T19:48:26;98013.75;;;11.56;83.24
68988;BME280;56038;46.080;11.116;2023-03-14T19:53:29;98013.91;;;11.40;82.72
68988;BME280;56038;46.080;11.116;2023-03-14T19:58:33;98011.28;;;11.40;82.13
68988;BME280;56038;46.080;11.116;2023-03-14T20:03:35;98009.41;;;11.43;82.56
68988;BME280;56038;46.080;11.116;2023-03-14T20:08:37;98018.41;;;11.38;83.38
68988;BME280;56038;46.080;11.116;2023-03-14T20:13:41;98029.78;;;11.37;83.18
68988;BME280;56038;46.080;11.116;2023-03-14T20:18:43;98028.28;;;11.33;83.18
68988;BME280;56038;46.080;11.116;2023-03-14T20:23:45;98020.34;;;11.35;82.34
68988;BME280;56038;46.080;11.116;2023-03-14T20:28:50;98015.53;;;11.29;85.52
68988;BME280;56038;46.080;11.116;2023-03-14T20:33:51;98022.38;;;11.17;84.28
68988;BME280;56038;46.080;11.116;2023-03-14T20:38:54;98027.97;;;11.25;83.42
68988;BME280;56038;46.080;11.116;2023-03-14T20:43:57;98041.88;;;11.26;82.90
68988;BME280;56038;46.080;11.116;2023-03-14T20:48:59;98037.59;;;11.25;81.08
68988;BME280;56038;46.080;11.116;2023-03-14T20:54:02;98034.34;;;11.21;82.54
68988;BME280;56038;46.080;11.116;2023-03-14T20:59:05;98033.22;;;11.11;82.35
68988;BME280;56038;46.080;11.116;2023-03-14T21:04:07;98032.50;;;11.09;82.37
68988;BME280;56038;46.080;11.116;2023-03-14T21:09:08;98033.44;;;11.08;81.68
68988;BME280;56038;46.080;11.116;2023-03-14T21:14:12;98039.94;;;11.15;80.20
68988;BME280;56038;46.080;11.116;2023-03-14T21:19:14;98041.03;;;11.25;77.00
68988;BME280;56038;46.080;11.116;2023-03-14T21:24:15;98045.44;;;11.25;75.58
68988;BME280;56038;46.080;11.116;2023-03-14T21:29:19;98044.59;;;11.24;73.90
68988;BME280;56038;46.080;11.116;2023-03-14T21:34:21;98043.00;;;11.22;73.38
68988;BME280;56038;46.080;11.116;2023-03-14T21:39:26;98044.13;;;11.18;73.10
68988;BME280;56038;46.080;11.116;2023-03-14T21:44:29;98043.28;;;11.17;71.28
68988;BME280;56038;46.080;11.116;2023-03-14T21:49:36;98035.44;;;11.17;70.96
68988;BME280;56038;46.080;11.116;2023-03-14T21:54:39;98036.59;;;11.13;69.88
68988;BME280;56038;46.080;11.116;2023-03-14T21:59:45;98049.75;;;11.12;68.58
68988;BME280;56038;46.080;11.116;2023-03-14T22:04:47;98055.06;;;11.10;67.04
68988;BME280;56038;46.080;11.116;2023-03-14T22:09:48;98057.69;;;11.10;66.45
68988;BME280;56038;46.080;11.116;2023-03-14T22:14:52;98056.00;;;11.09;64.36
68988;BME280;56038;46.080;11.116;2023-03-14T22:19:53;98066.28;;;11.12;64.32
68988;BME280;56038;46.080;11.116;2023-03-14T22:24:55;98078.41;;;11.13;63.34
68988;BME280;56038;46.080;11.116;2023-03-14T22:29:58;98081.00;;;11.13;60.78
68988;BME280;56038;46.080;11.116;2023-03-14T22:35:00;98085.84;;;11.19;61.62
68988;BME280;56038;46.080;11.116;2023-03-14T22:40:02;98094.63;;;11.18;58.67
68988;BME280;56038;46.080;11.116;2023-03-14T22:45:07;98103.41;;;11.17;60.52
68988;BME280;56038;46.080;11.116;2023-03-14T22:50:10;98098.28;;;11.16;60.01
68988;BME280;56038;46.080;11.116;2023-03-14T22:55:11;98112.56;;;11.10;59.66
68988;BME280;56038;46.080;11.116;2023-03-14T23:00:15;98117.91;;;11.08;57.60
68988;BME280;56038;46.080;11.116;2023-03-14T23:05:19;98120.31;;;11.12;57.65
68988;BME280;56038;46.080;11.116;2023-03-14T23:10:22;98129.28;;;11.07;57.12
68988;BME280;56038;46.080;11.116;2023-03-14T23:15:27;98129.53;;;11.03;56.99
68988;BME280;56038;46.080;11.116;2023-03-14T23:20:29;98134.13;;;10.99;57.04
68988;BME280;56038;46.080;11.116;2023-03-14T23:25:30;98137.03;;;10.95;55.94
68988;BME280;56038;46.080;11.116;2023-03-14T23:30:37;98135.56;;;10.91;54.70
68988;BME280;56038;46.080;11.116;2023-03-14T23:35:39;98146.25;;;10.86;54.61
68988;BME280;56038;46.080;11.116;2023-03-14T23:40:40;98145.72;;;10.81;55.08
68988;BME280;56038;46.080;11.116;2023-03-14T23:45:47;98162.59;;;10.75;54.29
68988;BME280;56038;46.080;11.116;2023-03-14T23:50:52;98173.19;;;10.72;54.23
68988;BME280;56038;46.080;11.116;2023-03-14T23:55:54;98188.13;;;10.70;47.48
